Time;durP1;ratioP1;P1;durP2;ratioP2;P2;SDS_P1;SDS_P2;PMS_P1;PMS_P2;Temp;Humidity;BMP_temperature;BMP_pressure;BME280_temperature;BME280_humidity;BME280_pressure;Samples;Min_cycle;Max_cycle;Signal;HPM_P1;HPM_P2
2023/12/01 00:01:24;;;;;;;48.40;24.33;;;;;;;;;;4999814;28;20022;-68
2023/12/01 00:03:50;;;;;;;53.07;22.13;;;;;;;;;;5010191;28;20034;-68
2023/12/01 00:06:18;;;;;;;54.23;24.20;;;;;;;;;;5011818;28;20033;-69
2023/12/01 00:08:43;;;;;;;51.43;22.83;;;;;;;;;;5009891;28;20498;-67
2023/12/01 00:11:10;;;;;;;60.80;24.67;;;;;;;;;;5011801;28;20041;-68
2023/12/01 00:13:36;;;;;;;60.77;24.27;;;;;;;;;;4996941;28;20030;-68
2023/12/01 00:16:02;;;;;;;58.33;25.50;;;;;;;;;;4990630;28;20136;-67
2023/12/01 00:18:28;;;;;;;51.53;24.10;;;;;;;;;;4991158;28;20509;-70
2023/12/01 00:20:53;;;;;;;54.20;23.73;;;;;;;;;;4991054;28;20030;-68
2023/12/01 00:23:20;;;;;;;55.20;25.73;;;;;;;;;;4991195;28;20034;-70
2023/12/01 00:25:47;;;;;;;63.93;25.70;;;;;;;;;;4991071;28;20034;-69
2023/12/01 00:28:15;;;;;;;63.97;25.73;;;;;;;;;;5026372;28;20037;-69
2023/12/01 00:30:40;;;;;;;52.00;24.17;;;;;;;;;;5011158;28;20034;-70
2023/12/01 00:33:06;;;;;;;65.20;24.93;;;;;;;;;;5009456;28;20500;-67
2023/12/01 00:35:32;;;;;;;68.73;26.37;;;;;;;;;;5009396;28;20057;-68
2023/12/01 00:37:58;;;;;;;60.10;23.60;;;;;;;;;;4995828;28;20034;-69
2023/12/01 00:40:23;;;;;;;65.40;23.13;;;;;;;;;;4989317;28;20026;-67
2023/12/01 00:42:49;;;;;;;64.30;25.63;;;;;;;;;;4990830;28;20064;-68
2023/12/01 00:45:18;;;;;;;59.30;23.83;;;;;;;;;;4991406;28;20382;-69
2023/12/01 00:47:43;;;;;;;70.80;24.63;;;;;;;;;;5006196;28;20057;-67
2023/12/01 00:50:09;;;;;;;70.33;24.47;;;;;;;;;;4999729;28;20037;-68
2023/12/01 00:52:35;;;;;;;68.90;25.67;;;;;;;;;;4990828;28;20038;-68
2023/12/01 00:55:01;;;;;;;64.60;24.00;;;;;;;;;;4989438;28;20033;-67
2023/12/01 00:57:27;;;;;;;67.23;23.90;;;;;;;;;;4989214;28;20398;-67
2023/12/01 00:59:53;;;;;;;69.77;25.40;;;;;;;;;;4990645;28;20041;-68
2023/12/01 01:02:19;;;;;;;59.73;22.33;;;;;;;;;;5005529;28;20504;-69
2023/12/01 01:04:44;;;;;;;56.17;22.03;;;;;;;;;;5008748;28;20110;-68
2023/12/01 01:07:10;;;;;;;69.17;24.90;;;;;;;;;;5008867;28;20446;-67
2023/12/01 01:09:36;;;;;;;65.20;26.17;;;;;;;;;;5008748;28;20038;-69
2023/12/01 01:12:02;;;;;;;55.97;23.33;;;;;;;;;;5010192;28;20446;-67
2023/12/01 01:14:28;;;;;;;67.23;25.47;;;;;;;;;;4989745;28;20030;-68
2023/12/01 01:16:53;;;;;;;62.23;24.50;;;;;;;;;;4988667;28;20119;-70
2023/12/01 01:19:19;;;;;;;67.17;25.80;;;;;;;;;;4990431;28;20038;-68
2023/12/01 01:21:45;;;;;;;62.63;24.07;;;;;;;;;;5004852;28;20325;-68
2023/12/01 01:24:11;;;;;;;60.63;23.20;;;;;;;;;;4990431;28;20097;-68
2023/12/01 01:26:39;;;;;;;56.87;24.10;;;;;;;;;;5005107;28;20114;-69
2023/12/01 01:29:12;;;;;;;64.37;24.63;;;;;;;;;;4990991;28;20030;-68
2023/12/01 01:31:39;;;;;;;67.73;24.77;;;;;;;;;;4988738;28;20092;-68
2023/12/01 01:34:05;;;;;;;63.40;25.93;;;;;;;;;;4990148;28;20063;-68
2023/12/01 01:36:31;;;;;;;63.27;25.00;;;;;;;;;;4989576;28;20026;-68
2023/12/01 01:38:57;;;;;;;69.87;24.30;;;;;;;;;;4989375;28;20034;-70
2023/12/01 01:41:23;;;;;;;57.80;24.47;;;;;;;;;;4990588;28;20037;-67
2023/12/01 01:43:49;;;;;;;65.63;23.07;;;;;;;;;;4992408;28;20081;-70
2023/12/01 01:46:15;;;;;;;65.53;22.63;;;;;;;;;;4990336;28;20245;-68
2023/12/01 01:48:42;;;;;;;59.70;25.83;;;;;;;;;;4990212;28;20037;-69
2023/12/01 01:51:09;;;;;;;65.70;25.97;;;;;;;;;;5005508;28;20117;-68
2023/12/01 01:53:38;;;;;;;72.37;23.77;;;;;;;;;;4990057;28;20042;-68
2023/12/01 01:56:05;;;;;;;66.50;25.00;;;;;;;;;;5005052;28;20038;-68
2023/12/01 01:58:31;;;;;;;69.17;24.70;;;;;;;;;;4990056;28;20034;-68
2023/12/01 02:00:57;;;;;;;56.67;23.57;;;;;;;;;;4990330;28;20137;-67
2023/12/01 02:03:23;;;;;;;61.80;25.57;;;;;;;;;;4988508;28;20038;-69
2023/12/01 02:05:50;;;;;;;66.57;25.23;;;;;;;;;;4991773;28;20034;-69
2023/12/01 02:08:30;;;;;;;61.60;24.97;;;;;;;;;;4993773;28;20027;-68
2023/12/01 02:10:57;;;;;;;64.57;24.63;;;;;;;;;;4994317;28;20114;-68
2023/12/01 02:13:24;;;;;;;71.30;26.97;;;;;;;;;;4995049;28;20117;-70
2023/12/01 02:15:53;;;;;;;69.50;27.20;;;;;;;;;;4994152;28;20077;-66
2023/12/01 02:18:27;;;;;;;69.80;26.80;;;;;;;;;;4996460;28;20018;-70
2023/12/01 02:20:54;;;;;;;67.83;26.43;;;;;;;;;;4996921;28;20498;-68
2023/12/01 02:23:21;;;;;;;75.90;27.60;;;;;;;;;;4994042;28;20096;-68
2023/12/01 02:25:47;;;;;;;69.07;25.93;;;;;;;;;;4998901;28;20053;-66
2023/12/01 02:28:13;;;;;;;72.33;26.73;;;;;;;;;;5011681;28;20048;-67
2023/12/01 02:30:42;;;;;;;71.47;26.13;;;;;;;;;;5011258;28;20037;-67
2023/12/01 02:33:07;;;;;;;75.13;27.23;;;;;;;;;;5012001;28;20030;-68
2023/12/01 02:35:34;;;;;;;63.70;25.20;;;;;;;;;;5011477;28;20152;-67
2023/12/01 02:38:00;;;;;;;74.70;27.83;;;;;;;;;;5005834;28;20068;-69
2023/12/01 02:40:27;;;;;;;66.47;26.60;;;;;;;;;;4993516;28;20062;-69
2023/12/01 02:42:54;;;;;;;74.10;26.03;;;;;;;;;;5008100;28;20042;-69
2023/12/01 02:45:21;;;;;;;66.63;26.00;;;;;;;;;;4991546;28;20065;-69
2023/12/01 02:47:49;;;;;;;70.37;26.47;;;;;;;;;;4991800;28;20042;-67
2023/12/01 02:50:15;;;;;;;68.93;27.03;;;;;;;;;;4997399;28;20030;-68
2023/12/01 02:52:41;;;;;;;68.67;26.30;;;;;;;;;;4991424;28;20045;-68
2023/12/01 02:55:08;;;;;;;69.43;24.77;;;;;;;;;;4993390;28;20399;-68
2023/12/01 02:57:35;;;;;;;77.53;27.03;;;;;;;;;;4991927;28;20030;-67
2023/12/01 03:00:05;;;;;;;80.10;27.43;;;;;;;;;;4999060;28;20033;-67
2023/12/01 03:02:32;;;;;;;69.43;25.30;;;;;;;;;;4991820;28;20081;-67
2023/12/01 03:04:58;;;;;;;52.70;22.73;;;;;;;;;;4993134;28;20041;-68
2023/12/01 03:07:24;;;;;;;71.57;27.23;;;;;;;;;;5007739;28;20030;-67
2023/12/01 03:09:50;;;;;;;65.67;24.90;;;;;;;;;;4992450;28;20403;-68
2023/12/01 03:12:15;;;;;;;79.10;28.00;;;;;;;;;;5007699;28;20034;-68
2023/12/01 03:14:41;;;;;;;72.30;26.63;;;;;;;;;;4993206;28;20067;-67
2023/12/01 03:17:07;;;;;;;69.37;26.03;;;;;;;;;;4991317;28;20085;-69
2023/12/01 03:19:33;;;;;;;66.17;25.20;;;;;;;;;;4994566;28;20038;-68
2023/12/01 03:22:00;;;;;;;69.83;25.83;;;;;;;;;;5012619;28;20517;-69
2023/12/01 03:24:26;;;;;;;61.20;25.07;;;;;;;;;;5011082;28;20030;-68
2023/12/01 03:26:52;;;;;;;73.10;24.70;;;;;;;;;;5011994;28;20034;-68
2023/12/01 03:29:19;;;;;;;66.37;24.77;;;;;;;;;;5010552;28;20368;-67
2023/12/01 03:31:46;;;;;;;75.77;25.93;;;;;;;;;;4991031;28;20026;-68
2023/12/01 03:34:12;;;;;;;63.93;25.40;;;;;;;;;;4992137;28;20037;-68
2023/12/01 03:36:38;;;;;;;79.67;26.73;;;;;;;;;;4991948;28;20030;-71
2023/12/01 03:39:06;;;;;;;65.23;24.33;;;;;;;;;;4990936;28;20502;-68
2023/12/01 03:41:32;;;;;;;64.33;25.30;;;;;;;;;;4992784;28;20379;-68
2023/12/01 03:43:58;;;;;;;61.83;23.60;;;;;;;;;;5011971;28;20112;-67
2023/12/01 03:46:23;;;;;;;67.53;27.50;;;;;;;;;;5010181;28;20034;-68
2023/12/01 03:48:49;;;;;;;71.30;26.97;;;;;;;;;;5011494;28;20478;-68
2023/12/01 03:51:15;;;;;;;74.93;25.27;;;;;;;;;;5009879;28;20128;-69
2023/12/01 03:53:40;;;;;;;60.13;25.13;;;;;;;;;;5009582;28;20026;-68
2023/12/01 03:56:08;;;;;;;68.87;25.20;;;;;;;;;;5010075;28;20535;-71
2023/12/01 03:58:34;;;;;;;69.23;25.77;;;;;;;;;;5009972;28;20425;-67
2023/12/01 04:00:59;;;;;;;68.77;24.27;;;;;;;;;;5007430;28;20064;-69
2023/12/01 04:03:25;;;;;;;67.83;27.17;;;;;;;;;;4990246;28;20057;-69
2023/12/01 04:05:51;;;;;;;69.53;25.33;;;;;;;;;;4990390;28;20406;-67
2023/12/01 04:08:18;;;;;;;70.80;24.40;;;;;;;;;;5006646;28;20109;-68
2023/12/01 04:10:44;;;;;;;61.00;24.43;;;;;;;;;;4990385;28;20113;-67
2023/12/01 04:13:12;;;;;;;66.87;25.73;;;;;;;;;;4990583;28;20026;-66
2023/12/01 04:15:39;;;;;;;66.13;24.27;;;;;;;;;;4990801;28;20026;-69
2023/12/01 04:18:08;;;;;;;58.57;23.67;;;;;;;;;;5008029;28;20092;-68
2023/12/01 04:20:39;;;;;;;63.20;26.33;;;;;;;;;;5006258;28;20116;-68
2023/12/01 04:23:10;;;;;;;68.43;25.07;;;;;;;;;;5005810;28;20036;-68
2023/12/01 04:25:40;;;;;;;70.55;25.83;;;;;;;;;;5025736;28;20097;-69
2023/12/01 04:28:07;;;;;;;65.13;23.73;;;;;;;;;;5009297;28;20029;-69
2023/12/01 04:30:34;;;;;;;65.70;24.73;;;;;;;;;;5016915;28;20205;-69
2023/12/01 04:33:00;;;;;;;64.27;25.73;;;;;;;;;;5005989;28;20161;-68
2023/12/01 04:35:28;;;;;;;78.90;27.33;;;;;;;;;;4989985;28;20022;-70
2023/12/01 04:38:00;;;;;;;66.97;22.87;;;;;;;;;;4989355;28;20486;-68
2023/12/01 04:40:28;;;;;;;67.38;23.42;;;;;;;;;;4990020;28;20188;-66
2023/12/01 04:42:55;;;;;;;65.87;26.23;;;;;;;;;;4999480;28;20157;-68
2023/12/01 04:45:24;;;;;;;68.60;26.67;;;;;;;;;;5009074;28;20036;-72
2023/12/01 04:47:51;;;;;;;71.63;26.23;;;;;;;;;;5010746;28;20017;-70
2023/12/01 04:50:19;;;;;;;75.00;27.47;;;;;;;;;;5009565;28;20030;-69
2023/12/01 04:52:52;;;;;;;75.53;26.93;;;;;;;;;;5010357;28;20033;-68
2023/12/01 04:55:20;;;;;;;70.93;27.60;;;;;;;;;;4992904;28;20029;-68
2023/12/01 04:57:46;;;;;;;63.77;24.87;;;;;;;;;;4990674;28;20502;-68
2023/12/01 05:00:21;;;;;;;73.03;26.60;;;;;;;;;;4990634;28;20026;-68
2023/12/01 05:02:55;;;;;;;70.50;26.13;;;;;;;;;;5007983;28;20026;-68
2023/12/01 05:05:26;;;;;;;72.67;25.70;;;;;;;;;;5008876;28;20502;-66
2023/12/01 05:07:57;;;;;;;69.43;26.40;;;;;;;;;;5008717;28;20470;-70
2023/12/01 05:10:28;;;;;;;69.53;26.50;;;;;;;;;;5010193;28;20056;-67
2023/12/01 05:12:55;;;;;;;70.33;24.30;;;;;;;;;;5008669;28;20120;-67
2023/12/01 05:15:26;;;;;;;70.07;26.47;;;;;;;;;;5008610;28;20128;-75
2023/12/01 05:17:57;;;;;;;74.10;28.60;;;;;;;;;;5007347;28;20064;-69
2023/12/01 05:20:27;;;;;;;71.75;27.05;;;;;;;;;;5003548;28;20042;-69
2023/12/01 05:22:56;;;;;;;72.57;26.10;;;;;;;;;;4988675;28;20126;-69
2023/12/01 05:25:27;;;;;;;68.80;27.40;;;;;;;;;;4973254;28;20085;-70
2023/12/01 05:27:59;;;;;;;65.90;26.97;;;;;;;;;;4988938;28;20041;-68
2023/12/01 05:30:27;;;;;;;68.65;26.90;;;;;;;;;;4991075;28;20276;-67
2023/12/01 05:32:54;;;;;;;66.53;24.97;;;;;;;;;;5005267;28;20520;-70
2023/12/01 05:35:20;;;;;;;68.67;26.47;;;;;;;;;;4996299;28;20117;-70
2023/12/01 05:37:50;;;;;;;72.83;25.87;;;;;;;;;;4999028;28;20030;-70
2023/12/01 05:40:20;;;;;;;66.13;26.33;;;;;;;;;;5001626;28;20034;-68
2023/12/01 05:42:47;;;;;;;69.53;26.67;;;;;;;;;;5003279;28;20120;-67
2023/12/01 05:45:14;;;;;;;74.43;26.33;;;;;;;;;;5005177;28;20121;-68
2023/12/01 05:47:42;;;;;;;72.07;27.87;;;;;;;;;;5008299;28;20022;-68
2023/12/01 05:50:23;;;;;;;70.63;26.27;;;;;;;;;;5007817;28;20025;-68
2023/12/01 05:52:52;;;;;;;63.57;23.50;;;;;;;;;;4997446;28;20034;-69
2023/12/01 05:55:20;;;;;;;71.30;25.30;;;;;;;;;;5014429;28;20026;-68
2023/12/01 05:57:50;;;;;;;74.47;29.00;;;;;;;;;;5008881;28;20025;-68
2023/12/01 06:00:21;;;;;;;71.83;25.80;;;;;;;;;;5008450;28;20053;-69
2023/12/01 06:02:51;;;;;;;69.63;26.23;;;;;;;;;;5019386;28;20043;-70
2023/12/01 06:05:19;;;;;;;65.60;25.83;;;;;;;;;;5010059;28;20030;-69
2023/12/01 06:07:54;;;;;;;71.77;26.10;;;;;;;;;;5005249;28;20061;-68
2023/12/01 06:10:20;;;;;;;63.90;25.13;;;;;;;;;;5020185;28;20062;-70
2023/12/01 06:12:49;;;;;;;68.37;26.63;;;;;;;;;;5010397;28;20054;-69
2023/12/01 06:15:17;;;;;;;67.20;24.57;;;;;;;;;;5002980;28;20025;-66
2023/12/01 06:17:45;;;;;;;66.87;23.63;;;;;;;;;;5021072;28;20049;-70
2023/12/01 06:20:18;;;;;;;60.20;25.20;;;;;;;;;;5015169;28;20049;-71
2023/12/01 06:22:49;;;;;;;72.23;26.70;;;;;;;;;;5006536;28;20033;-71
2023/12/01 06:25:20;;;;;;;67.67;23.00;;;;;;;;;;5030035;28;20046;-73
2023/12/01 06:27:48;;;;;;;67.47;23.88;;;;;;;;;;5013001;28;20041;-69
2023/12/01 06:30:15;;;;;;;69.40;26.13;;;;;;;;;;5014341;28;20080;-69
2023/12/01 06:32:42;;;;;;;62.83;24.43;;;;;;;;;;5000228;28;20037;-69
2023/12/01 06:35:11;;;;;;;78.97;28.13;;;;;;;;;;5013035;28;20025;-70
2023/12/01 06:37:37;;;;;;;72.30;27.07;;;;;;;;;;5004454;28;20026;-70
2023/12/01 06:40:11;;;;;;;70.23;28.73;;;;;;;;;;4995241;28;20033;-73
2023/12/01 06:42:56;;;;;;;73.40;26.87;;;;;;;;;;4992350;28;20032;-70
2023/12/01 06:45:36;;;;;;;65.50;25.13;;;;;;;;;;5007088;28;20449;-69
2023/12/01 06:48:01;;;;;;;100.53;27.37;;;;;;;;;;4988612;28;20521;-74
2023/12/01 06:50:27;;;;;;;78.03;27.03;;;;;;;;;;5005499;28;20034;-69
2023/12/01 06:52:53;;;;;;;82.37;27.77;;;;;;;;;;5004811;28;20034;-71
2023/12/01 06:55:19;;;;;;;77.97;26.90;;;;;;;;;;5013750;28;20053;-71
2023/12/01 06:57:49;;;;;;;80.73;30.23;;;;;;;;;;5026614;28;20206;-70
2023/12/01 07:00:32;;;;;;;72.53;27.10;;;;;;;;;;4992520;28;20136;-70
2023/12/01 07:03:00;;;;;;;74.97;27.00;;;;;;;;;;5013367;28;20030;-69
2023/12/01 07:05:26;;;;;;;67.67;26.17;;;;;;;;;;5004680;28;20033;-72
2023/12/01 07:07:53;;;;;;;69.80;27.97;;;;;;;;;;5003816;28;20079;-72
2023/12/01 07:10:19;;;;;;;72.43;24.97;;;;;;;;;;5019373;28;20074;-70
2023/12/01 07:12:45;;;;;;;71.77;25.27;;;;;;;;;;5000885;28;20617;-74
2023/12/01 07:15:13;;;;;;;65.33;24.97;;;;;;;;;;5004944;28;20030;-71
2023/12/01 07:17:39;;;;;;;73.73;26.57;;;;;;;;;;5001463;28;20050;-71
2023/12/01 07:20:13;;;;;;;66.00;25.43;;;;;;;;;;4996600;28;20057;-71
2023/12/01 07:22:40;;;;;;;79.93;27.03;;;;;;;;;;4999472;28;20241;-72
2023/12/01 07:25:10;;;;;;;74.10;27.53;;;;;;;;;;4997915;28;20070;-71
2023/12/01 07:27:40;;;;;;;79.83;26.53;;;;;;;;;;5015425;28;20444;-70
2023/12/01 07:30:10;;;;;;;76.07;26.40;;;;;;;;;;5013916;28;20040;-70
2023/12/01 07:32:39;;;;;;;75.43;23.10;;;;;;;;;;5002649;28;20033;-70
2023/12/01 07:35:15;;;;;;;76.13;25.57;;;;;;;;;;5008530;28;20034;-71
2023/12/01 07:37:51;;;;;;;73.60;24.43;;;;;;;;;;4999861;28;20155;-71
2023/12/01 07:40:19;;;;;;;75.87;25.77;;;;;;;;;;5005282;28;20390;-74
2023/12/01 07:42:46;;;;;;;74.10;26.10;;;;;;;;;;5019102;28;20035;-71
2023/12/01 07:45:15;;;;;;;67.27;23.93;;;;;;;;;;5000751;28;20057;-72
2023/12/01 07:47:40;;;;;;;75.20;25.70;;;;;;;;;;5013913;28;20036;-69
2023/12/01 07:50:07;;;;;;;72.63;26.43;;;;;;;;;;5006802;28;20033;-72
2023/12/01 07:52:33;;;;;;;78.67;27.47;;;;;;;;;;4995901;28;20068;-72
2023/12/01 07:54:59;;;;;;;77.27;25.10;;;;;;;;;;4993371;28;20041;-73
2023/12/01 07:57:25;;;;;;;81.27;28.40;;;;;;;;;;5017654;28;20069;-69
2023/12/01 07:59:50;;;;;;;74.77;26.00;;;;;;;;;;5006657;28;20034;-72
2023/12/01 08:02:17;;;;;;;73.40;26.13;;;;;;;;;;5011988;28;20519;-71
2023/12/01 08:04:43;;;;;;;83.50;26.60;;;;;;;;;;4999168;28;20642;-72
2023/12/01 08:07:09;;;;;;;87.73;33.13;;;;;;;;;;5002115;28;20137;-73
2023/12/01 08:09:36;;;;;;;69.13;26.60;;;;;;;;;;5001037;28;20034;-70
2023/12/01 08:12:04;;;;;;;78.77;27.43;;;;;;;;;;5000717;28;20442;-72
2023/12/01 08:14:34;;;;;;;85.77;25.97;;;;;;;;;;5003476;28;20506;-72
2023/12/01 08:17:03;;;;;;;80.30;27.20;;;;;;;;;;4985457;28;20046;-71
2023/12/01 08:19:30;;;;;;;79.33;27.50;;;;;;;;;;5009191;28;20063;-71
2023/12/01 08:21:56;;;;;;;84.63;27.80;;;;;;;;;;5002426;28;20033;-70
2023/12/01 08:24:25;;;;;;;77.50;24.90;;;;;;;;;;5009808;28;20042;-72
2023/12/01 08:26:51;;;;;;;74.33;25.77;;;;;;;;;;4990415;28;20025;-73
2023/12/01 08:29:24;;;;;;;76.17;25.97;;;;;;;;;;5000487;28;20044;-71
2023/12/01 08:31:50;;;;;;;78.13;26.47;;;;;;;;;;5022373;28;20034;-72
2023/12/01 08:34:16;;;;;;;78.17;29.13;;;;;;;;;;4999323;28;20063;-72
2023/12/01 08:36:42;;;;;;;77.53;26.17;;;;;;;;;;5020934;28;20030;-70
2023/12/01 08:39:09;;;;;;;82.33;29.63;;;;;;;;;;5023008;28;20898;-71
2023/12/01 08:41:35;;;;;;;84.83;28.07;;;;;;;;;;4999836;28;20495;-71
2023/12/01 08:44:03;;;;;;;73.13;26.97;;;;;;;;;;5005123;28;20028;-71
2023/12/01 08:46:31;;;;;;;78.90;26.87;;;;;;;;;;5005419;28;20053;-70
2023/12/01 08:48:57;;;;;;;75.00;26.43;;;;;;;;;;4997735;28;20033;-70
2023/12/01 08:51:23;;;;;;;72.20;26.70;;;;;;;;;;5003635;28;20398;-71
2023/12/01 08:53:49;;;;;;;83.93;24.63;;;;;;;;;;5011651;28;20033;-71
2023/12/01 08:56:15;;;;;;;68.70;24.77;;;;;;;;;;5025394;28;20743;-72
2023/12/01 08:58:44;;;;;;;78.47;25.30;;;;;;;;;;5003552;28;20030;-71
2023/12/01 09:01:10;;;;;;;80.13;25.33;;;;;;;;;;4999780;28;20124;-70
2023/12/01 09:03:44;;;;;;;75.47;27.23;;;;;;;;;;5003834;28;20049;-72
2023/12/01 09:06:11;;;;;;;81.50;26.87;;;;;;;;;;5016258;28;20144;-69
2023/12/01 09:08:37;;;;;;;75.83;26.27;;;;;;;;;;5010689;28;20061;-71
2023/12/01 09:11:07;;;;;;;84.40;28.03;;;;;;;;;;5013273;28;20533;-68
2023/12/01 09:13:34;;;;;;;74.20;24.80;;;;;;;;;;5008679;28;20046;-70
2023/12/01 09:16:00;;;;;;;82.37;26.70;;;;;;;;;;5008828;28;20145;-69
2023/12/01 09:18:27;;;;;;;84.00;27.90;;;;;;;;;;5018865;28;20038;-69
2023/12/01 09:20:52;;;;;;;81.43;27.47;;;;;;;;;;4997291;28;20105;-72
2023/12/01 09:23:18;;;;;;;73.93;25.63;;;;;;;;;;5018088;28;20046;-70
2023/12/01 09:25:43;;;;;;;69.60;25.60;;;;;;;;;;4994619;28;20030;-71
2023/12/01 09:28:09;;;;;;;77.10;25.33;;;;;;;;;;5005318;28;20029;-71
2023/12/01 09:30:35;;;;;;;69.03;25.60;;;;;;;;;;5027526;28;20045;-71
2023/12/01 09:33:02;;;;;;;71.57;23.97;;;;;;;;;;5025843;28;20040;-70
2023/12/01 09:35:28;;;;;;;76.57;24.77;;;;;;;;;;5002565;28;20037;-76
2023/12/01 09:37:53;;;;;;;77.03;25.23;;;;;;;;;;4998872;28;20045;-71
2023/12/01 09:40:19;;;;;;;80.97;26.70;;;;;;;;;;5004475;28;20033;-69
2023/12/01 09:42:46;;;;;;;77.37;26.20;;;;;;;;;;5002785;28;20087;-69
2023/12/01 09:45:18;;;;;;;68.23;25.60;;;;;;;;;;5000514;28;20351;-73
2023/12/01 09:47:49;;;;;;;;;;;;;;;;;;5007866;28;20647;-70
2023/12/01 09:50:16;;;;;;;63.92;27.42;;;;;;;;;;5011641;28;19913;-69
2023/12/01 09:52:42;;;;;;;67.60;25.37;;;;;;;;;;5003988;28;20049;-70
2023/12/01 09:55:08;;;;;;;74.70;23.63;;;;;;;;;;4999885;28;20049;-73
2023/12/01 09:57:34;;;;;;;73.63;24.40;;;;;;;;;;5001431;28;20498;-71
2023/12/01 10:00:00;;;;;;;66.47;25.10;;;;;;;;;;5019267;28;20024;-71
2023/12/01 10:02:27;;;;;;;80.10;26.20;;;;;;;;;;5000819;28;20030;-69
2023/12/01 10:05:01;;;;;;;73.43;27.10;;;;;;;;;;5003125;28;20026;-72
2023/12/01 10:07:26;;;;;;;76.00;26.80;;;;;;;;;;5029871;28;20042;-71
2023/12/01 10:09:56;;;;;;;88.17;28.37;;;;;;;;;;5011829;28;20060;-71
2023/12/01 10:12:21;;;;;;;77.80;26.27;;;;;;;;;;5015957;28;20030;-70
2023/12/01 10:14:47;;;;;;;67.83;24.10;;;;;;;;;;5000793;28;20065;-71
2023/12/01 10:17:14;;;;;;;65.83;24.70;;;;;;;;;;4999585;28;20054;-72
2023/12/01 10:19:47;;;;;;;73.37;26.00;;;;;;;;;;5020021;28;20033;-70
2023/12/01 10:22:16;;;;;;;71.10;25.53;;;;;;;;;;5008331;28;20028;-69
2023/12/01 10:24:53;;;;;;;71.87;24.43;;;;;;;;;;4994652;28;20018;-70
2023/12/01 10:27:22;;;;;;;61.70;22.83;;;;;;;;;;5010637;28;20382;-74
2023/12/01 10:29:48;;;;;;;70.43;26.23;;;;;;;;;;5011298;28;20438;-72
2023/12/01 10:32:17;;;;;;;68.43;25.80;;;;;;;;;;5009192;28;20045;-73
2023/12/01 10:34:51;;;;;;;73.53;26.13;;;;;;;;;;5036395;28;20124;-70
2023/12/01 10:37:20;;;;;;;66.73;24.60;;;;;;;;;;5008507;28;20337;-72
2023/12/01 10:39:54;;;;;;;66.97;25.87;;;;;;;;;;5021830;28;20133;-70
2023/12/01 10:42:21;;;;;;;70.67;25.87;;;;;;;;;;5014989;28;20025;-69
2023/12/01 10:44:48;;;;;;;70.93;26.57;;;;;;;;;;5012769;28;20057;-74
2023/12/01 10:47:16;;;;;;;83.53;27.37;;;;;;;;;;4995890;28;20034;-70
2023/12/01 10:49:47;;;;;;;76.53;27.73;;;;;;;;;;5015724;28;20037;-70
2023/12/01 10:52:15;;;;;;;74.57;27.17;;;;;;;;;;5028735;28;20029;-71
2023/12/01 10:54:43;;;;;;;73.70;30.43;;;;;;;;;;5007269;28;20032;-71
2023/12/01 10:57:26;;;;;;;78.40;27.73;;;;;;;;;;5030057;28;20030;-71
2023/12/01 10:59:53;;;;;;;84.93;27.43;;;;;;;;;;5017080;28;20045;-73
2023/12/01 11:02:22;;;;;;;75.10;29.70;;;;;;;;;;4999125;28;20322;-72
2023/12/01 11:04:48;;;;;;;74.17;26.77;;;;;;;;;;5012004;28;20030;-71
2023/12/01 11:07:29;;;;;;;74.77;28.77;;;;;;;;;;5038114;28;20036;-70
2023/12/01 11:10:37;;;;;;;84.68;29.02;;;;;;;;;;5009312;28;20073;-71
2023/12/01 11:13:08;;;;;;;73.67;27.47;;;;;;;;;;5005962;28;20033;-72
2023/12/01 11:15:37;;;;;;;75.97;26.77;;;;;;;;;;5013169;28;20104;-72
2023/12/01 11:18:08;;;;;;;71.40;29.17;;;;;;;;;;5023801;28;20030;-69
2023/12/01 11:20:36;;;;;;;76.07;26.10;;;;;;;;;;5015934;28;20048;-69
2023/12/01 11:23:24;;;;;;;63.43;24.67;;;;;;;;;;4999421;28;20100;-69
2023/12/01 11:26:05;;;;;;;75.63;27.10;;;;;;;;;;4993693;28;20383;-70
2023/12/01 11:31:20;;;;;;;72.87;25.97;;;;;;;;;;5033801;28;20247;-71
2023/12/01 11:34:00;;;;;;;79.57;26.37;;;;;;;;;;5000643;28;20117;-71
2023/12/01 11:36:29;;;;;;;73.83;27.30;;;;;;;;;;5038233;28;20037;-72
2023/12/01 11:39:14;;;;;;;79.93;27.87;;;;;;;;;;5016257;28;20060;-70
2023/12/01 11:41:48;;;;;;;65.67;26.10;;;;;;;;;;5019751;28;20033;-73
2023/12/01 11:44:19;;;;;;;80.70;32.73;;;;;;;;;;4988093;28;20039;-73
2023/12/01 11:46:47;;;;;;;84.30;29.40;;;;;;;;;;5010234;28;20036;-72
2023/12/01 11:49:14;;;;;;;78.03;27.47;;;;;;;;;;5029813;28;20034;-71
2023/12/01 11:51:43;;;;;;;85.03;31.07;;;;;;;;;;5006675;28;20033;-72
2023/12/01 11:54:11;;;;;;;78.33;30.33;;;;;;;;;;4993951;28;20030;-72
2023/12/01 11:56:38;;;;;;;88.70;32.03;;;;;;;;;;4996820;28;20162;-71
2023/12/01 11:59:08;;;;;;;74.20;28.30;;;;;;;;;;5003600;28;20125;-72
2023/12/01 12:01:33;;;;;;;73.43;28.17;;;;;;;;;;5025746;28;20183;-71
2023/12/01 12:03:59;;;;;;;83.27;29.47;;;;;;;;;;5020623;28;20108;-71
2023/12/01 12:06:25;;;;;;;80.57;31.57;;;;;;;;;;4998836;28;20041;-71
2023/12/01 12:08:52;;;;;;;79.00;29.37;;;;;;;;;;5005554;28;20064;-69
2023/12/01 12:11:39;;;;;;;80.17;30.70;;;;;;;;;;5008508;28;20153;-70
2023/12/01 12:14:05;;;;;;;80.63;30.20;;;;;;;;;;5001726;28;20030;-69
2023/12/01 12:16:31;;;;;;;83.60;29.13;;;;;;;;;;5005209;28;20042;-72
2023/12/01 12:18:59;;;;;;;79.43;29.80;;;;;;;;;;4997818;28;20084;-70
2023/12/01 12:21:25;;;;;;;77.27;29.30;;;;;;;;;;4998788;28;20038;-70
2023/12/01 12:23:52;;;;;;;77.83;30.83;;;;;;;;;;5005859;28;20752;-71
2023/12/01 12:26:20;;;;;;;79.93;30.80;;;;;;;;;;5005626;28;20029;-69
2023/12/01 12:28:54;;;;;;;73.60;29.97;;;;;;;;;;5015905;28;20585;-70
2023/12/01 12:31:20;;;;;;;75.43;29.77;;;;;;;;;;5027881;28;20042;-70
2023/12/01 12:33:50;;;;;;;69.30;27.87;;;;;;;;;;4998950;28;20030;-73
2023/12/01 12:36:17;;;;;;;80.20;30.67;;;;;;;;;;5004450;28;20025;-72
2023/12/01 12:38:47;;;;;;;85.83;31.80;;;;;;;;;;5000272;28;20029;-72
2023/12/01 12:41:26;;;;;;;77.27;30.60;;;;;;;;;;5009360;28;20141;-71
2023/12/01 12:43:55;;;;;;;69.47;27.87;;;;;;;;;;5003039;28;20100;-70
2023/12/01 12:46:21;;;;;;;75.47;29.07;;;;;;;;;;5006151;28;20046;-70
2023/12/01 12:48:47;;;;;;;74.27;31.57;;;;;;;;;;5004134;28;20056;-71
2023/12/01 12:51:15;;;;;;;71.40;30.20;;;;;;;;;;5005253;28;20045;-71
2023/12/01 12:53:42;;;;;;;66.40;30.03;;;;;;;;;;5006658;28;20398;-70
2023/12/01 12:56:15;;;;;;;77.47;30.27;;;;;;;;;;5008004;28;20466;-68
2023/12/01 12:58:45;;;;;;;73.93;30.27;;;;;;;;;;5008825;28;20798;-69
2023/12/01 13:01:11;;;;;;;76.27;28.00;;;;;;;;;;5002579;28;20093;-69
2023/12/01 13:03:38;;;;;;;68.00;28.17;;;;;;;;;;5015246;28;20048;-71
2023/12/01 13:06:05;;;;;;;74.27;31.17;;;;;;;;;;5015403;28;20034;-71
2023/12/01 13:08:36;;;;;;;73.63;28.37;;;;;;;;;;5019069;28;20448;-73
2023/12/01 13:11:03;;;;;;;74.87;31.30;;;;;;;;;;5009179;28;20092;-72
2023/12/01 13:13:29;;;;;;;79.33;31.30;;;;;;;;;;5026024;28;20021;-71
2023/12/01 13:15:55;;;;;;;70.43;28.73;;;;;;;;;;5009757;28;20111;-71
2023/12/01 13:18:25;;;;;;;66.73;28.47;;;;;;;;;;5005427;28;20390;-71
2023/12/01 13:20:52;;;;;;;71.93;28.23;;;;;;;;;;5002145;28;20116;-70
2023/12/01 13:23:19;;;;;;;78.27;30.13;;;;;;;;;;5001916;28;20034;-73
2023/12/01 13:25:45;;;;;;;69.53;28.60;;;;;;;;;;5006257;28;20128;-69
2023/12/01 13:28:14;;;;;;;75.40;29.00;;;;;;;;;;4999582;28;20114;-71
2023/12/01 13:30:40;;;;;;;69.13;28.40;;;;;;;;;;4994476;28;20030;-68
2023/12/01 13:33:06;;;;;;;73.33;29.53;;;;;;;;;;4990921;28;20891;-69
2023/12/01 13:35:33;;;;;;;64.70;30.70;;;;;;;;;;5009422;28;20025;-70
2023/12/01 13:38:01;;;;;;;70.73;30.03;;;;;;;;;;5015837;28;20459;-71
2023/12/01 13:40:30;;;;;;;65.00;27.70;;;;;;;;;;4995166;28;20049;-70
2023/12/01 13:42:56;;;;;;;70.07;28.10;;;;;;;;;;4994741;28;20032;-70
2023/12/01 13:45:23;;;;;;;70.03;30.67;;;;;;;;;;5002763;28;20034;-70
2023/12/01 13:47:48;;;;;;;69.37;29.97;;;;;;;;;;5025692;28;20058;-74
2023/12/01 13:50:18;;;;;;;72.57;29.90;;;;;;;;;;5007089;28;20062;-72
2023/12/01 13:52:47;;;;;;;66.43;29.33;;;;;;;;;;4993452;28;20034;-71
2023/12/01 13:55:13;;;;;;;65.40;26.53;;;;;;;;;;5001876;28;20517;-71
2023/12/01 13:57:39;;;;;;;71.93;28.87;;;;;;;;;;5002253;28;20184;-73
2023/12/01 14:00:09;;;;;;;70.17;29.03;;;;;;;;;;5004602;28;20632;-70
2023/12/01 14:02:36;;;;;;;69.17;29.33;;;;;;;;;;5000228;28;20030;-70
2023/12/01 14:05:01;;;;;;;66.47;28.53;;;;;;;;;;5004297;28;20025;-70
2023/12/01 14:07:27;;;;;;;71.60;29.77;;;;;;;;;;4996481;28;20049;-71
2023/12/01 14:09:53;;;;;;;67.07;26.60;;;;;;;;;;5000767;28;20446;-74
2023/12/01 14:12:18;;;;;;;68.93;28.10;;;;;;;;;;4998756;28;20101;-71
2023/12/01 14:14:44;;;;;;;75.60;30.10;;;;;;;;;;4998030;28;20266;-72
2023/12/01 14:17:15;;;;;;;73.97;29.00;;;;;;;;;;5011711;28;20514;-70
2023/12/01 14:19:42;;;;;;;68.57;28.33;;;;;;;;;;5006232;28;20029;-73
2023/12/01 14:22:10;;;;;;;71.20;30.93;;;;;;;;;;4997800;28;20033;-73
2023/12/01 14:24:36;;;;;;;66.70;28.80;;;;;;;;;;5012087;28;20164;-69